createdAt,value
2018-11-10T00:05:23.391Z,11.3
2018-11-10T00:15:26.889Z,11.3
2018-11-10T00:25:30.347Z,11.3
2018-11-10T00:35:33.812Z,11.4
2018-11-10T00:45:37.239Z,11.3
2018-11-10T00:55:40.705Z,11.4
2018-11-10T01:05:44.148Z,11.6
2018-11-10T01:15:47.616Z,11.4
2018-11-10T01:25:51.082Z,11.4
2018-11-10T01:35:54.532Z,11.5
2018-11-10T01:45:57.979Z,11.5
2018-11-10T01:56:01.438Z,11.4
2018-11-10T02:06:04.859Z,11.5
2018-11-10T02:16:08.303Z,11.5
2018-11-10T02:26:11.766Z,11.4
2018-11-10T02:36:15.241Z,11.4
2018-11-10T02:46:18.708Z,11.4
2018-11-10T02:56:22.164Z,11.4
2018-11-10T03:06:25.618Z,11.4
2018-11-10T03:16:29.219Z,11.4
2018-11-10T03:26:33.203Z,11.5
2018-11-10T03:36:36.666Z,11.4
2018-11-10T03:46:40.124Z,11.4
2018-11-10T03:56:43.607Z,11.3
2018-11-10T04:06:47.028Z,11.2
2018-11-10T04:16:50.489Z,11.1
2018-11-10T04:26:53.938Z,11.2
2018-11-10T04:36:57.378Z,11.2
2018-11-10T04:47:00.814Z,11.1
2018-11-10T04:57:04.231Z,11.1
2018-11-10T05:07:07.686Z,11.2
2018-11-10T05:17:11.139Z,11.3
2018-11-10T05:27:14.581Z,11.1
2018-11-10T05:37:18.062Z,11
2018-11-10T05:47:22.513Z,11.2
2018-11-10T05:57:25.949Z,11
2018-11-10T06:07:29.396Z,11.1
2018-11-10T06:17:32.861Z,11.1
2018-11-10T06:27:36.418Z,11
2018-11-10T06:37:39.883Z,10.9
2018-11-10T06:47:43.355Z,10.9
2018-11-10T06:57:46.804Z,10.7
2018-11-10T07:07:50.268Z,10.9
2018-11-10T07:17:53.748Z,10.8
2018-11-10T07:27:57.472Z,11
2018-11-10T07:38:00.944Z,11
2018-11-10T07:48:04.441Z,11
2018-11-10T07:58:07.912Z,11.1
2018-11-10T08:08:11.370Z,11.1
2018-11-10T08:18:14.834Z,11.1
2018-11-10T08:28:18.291Z,11.1
2018-11-10T08:38:21.737Z,11.2
2018-11-10T08:48:25.155Z,11.1
2018-11-10T08:58:28.604Z,11.2
2018-11-10T09:08:32.047Z,11.2
2018-11-10T09:18:35.494Z,11.2
2018-11-10T09:28:38.965Z,11.2
2018-11-10T09:38:42.401Z,11.1
2018-11-10T09:48:45.850Z,11.2
2018-11-10T09:58:49.292Z,11.2
2018-11-10T10:08:52.770Z,11.2
2018-11-10T10:18:56.887Z,11.1
2018-11-10T10:29:00.469Z,11.3
2018-11-10T10:39:05.515Z,11.3
2018-11-10T10:49:09.057Z,11.4
2018-11-10T10:59:13.154Z,11.2
2018-11-10T11:09:16.588Z,11.4
2018-11-10T11:19:20.060Z,11.3
2018-11-10T11:29:23.625Z,11.4
2018-11-10T11:39:28.063Z,11.4
2018-11-10T11:49:31.502Z,11.5
2018-11-10T11:59:34.961Z,11.5
2018-11-10T12:09:38.403Z,11.5
2018-11-10T12:19:41.871Z,11.6
2018-11-10T12:29:45.334Z,11.7
2018-11-10T12:39:48.785Z,11.8
2018-11-10T12:49:52.235Z,11.9
2018-11-10T12:59:55.690Z,11.9
2018-11-10T13:09:59.141Z,11.9
2018-11-10T13:20:02.603Z,12.1
2018-11-10T13:30:06.036Z,12.1
2018-11-10T13:40:09.469Z,12.1
2018-11-10T13:50:12.975Z,12.1
2018-11-10T14:00:16.455Z,12.1
2018-11-10T14:10:19.912Z,12
2018-11-10T14:20:23.551Z,12.1
2018-11-10T14:30:27.387Z,12.2
2018-11-10T14:40:30.837Z,12.2
2018-11-10T14:50:34.293Z,12.1
2018-11-10T15:00:37.729Z,12.2
2018-11-10T15:10:41.203Z,12
2018-11-10T15:20:44.634Z,12
2018-11-10T15:30:48.056Z,12
2018-11-10T15:40:51.508Z,12
2018-11-10T15:50:54.963Z,11.9
2018-11-10T16:00:58.428Z,11.9
2018-11-10T16:11:01.943Z,12
2018-11-10T16:21:05.453Z,11.9
2018-11-10T16:31:09.412Z,11.7
2018-11-10T16:41:12.864Z,11.7
2018-11-10T16:51:16.287Z,11.6
2018-11-10T17:01:19.780Z,11.7
2018-11-10T17:11:23.240Z,11.7
2018-11-10T17:21:32.208Z,11.6
2018-11-10T17:31:36.179Z,11.8
2018-11-10T17:41:39.636Z,11.7
2018-11-10T17:51:43.104Z,11.5
2018-11-10T18:01:46.755Z,11.5
2018-11-10T18:11:51.143Z,11.7
2018-11-10T18:21:54.689Z,11.7
2018-11-10T18:31:58.105Z,11.6
2018-11-10T18:42:01.531Z,11.5
2018-11-10T18:52:05.007Z,11.5
2018-11-10T19:02:08.703Z,11.5
2018-11-10T19:12:12.128Z,11.4
2018-11-10T19:22:15.605Z,11.4
2018-11-10T19:32:19.153Z,11.4
2018-11-10T19:42:23.263Z,11.5
2018-11-10T19:52:26.705Z,11.7
2018-11-10T20:02:30.155Z,11.5
2018-11-10T20:12:33.610Z,11.5
2018-11-10T20:22:37.085Z,11.6
2018-11-10T20:32:40.525Z,11.6
2018-11-10T20:42:44.262Z,11.6
2018-11-10T20:52:47.735Z,11.4
2018-11-10T21:02:51.191Z,11.3
2018-11-10T21:12:54.700Z,11.2
2018-11-10T21:22:58.493Z,11.3
2018-11-10T21:33:01.992Z,11.3
2018-11-10T21:43:05.464Z,11.4
2018-11-10T21:53:08.933Z,11.3
2018-11-10T22:03:12.403Z,11.2
2018-11-10T22:13:15.866Z,11.3
2018-11-10T22:23:19.285Z,11.3
2018-11-10T22:33:22.737Z,11.3
2018-11-10T22:43:26.167Z,11.4
2018-11-10T22:53:29.625Z,11.3
2018-11-10T23:03:33.097Z,11.3
2018-11-10T23:13:36.891Z,11.1
2018-11-10T23:23:40.431Z,11.2
2018-11-10T23:33:44.437Z,11.2
2018-11-10T23:43:47.885Z,11
2018-11-10T23:53:51.387Z,11
